sensor_id;sensor_type;location;lat;lon;timestamp;P1;durP1;ratioP1;P2;durP2;ratioP2
5722;SDS011;2886;49.722;8.612;2023-09-18T00:01:50;3.43;;;2.57;;
5722;SDS011;2886;49.722;8.612;2023-09-18T00:04:15;3.93;;;2.40;;
5722;SDS011;2886;49.722;8.612;2023-09-18T00:06:41;4.27;;;2.70;;
5722;SDS011;2886;49.722;8.612;2023-09-18T00:09:07;6.20;;;2.70;;
5722;SDS011;2886;49.722;8.612;2023-09-18T00:11:36;2.30;;;2.03;;
5722;SDS011;2886;49.722;8.612;2023-09-18T00:14:03;2.67;;;2.40;;
5722;SDS011;2886;49.722;8.612;2023-09-18T00:16:29;4.50;;;2.30;;
5722;SDS011;2886;49.722;8.612;2023-09-18T00:18:55;7.50;;;3.20;;
5722;SDS011;2886;49.722;8.612;2023-09-18T00:21:20;2.40;;;2.20;;
5722;SDS011;2886;49.722;8.612;2023-09-18T00:23:46;4.30;;;2.27;;
5722;SDS011;2886;49.722;8.612;2023-09-18T00:26:12;2.63;;;2.43;;
5722;SDS011;2886;49.722;8.612;2023-09-18T00:28:37;5.00;;;2.63;;
5722;SDS011;2886;49.722;8.612;2023-09-18T00:31:03;4.37;;;2.57;;
5722;SDS011;2886;49.722;8.612;2023-09-18T00:33:29;6.80;;;2.80;;
5722;SDS011;2886;49.722;8.612;2023-09-18T00:35:54;3.50;;;2.63;;
5722;SDS011;2886;49.722;8.612;2023-09-18T00:38:20;6.63;;;2.77;;
5722;SDS011;2886;49.722;8.612;2023-09-18T00:40:46;3.70;;;2.07;;
5722;SDS011;2886;49.722;8.612;2023-09-18T00:43:11;6.37;;;2.83;;
5722;SDS011;2886;49.722;8.612;2023-09-18T00:45:41;6.80;;;2.77;;
5722;SDS011;2886;49.722;8.612;2023-09-18T00:48:09;5.10;;;3.00;;
5722;SDS011;2886;49.722;8.612;2023-09-18T00:50:34;4.77;;;3.50;;
5722;SDS011;2886;49.722;8.612;2023-09-18T00:53:01;4.97;;;2.63;;
5722;SDS011;2886;49.722;8.612;2023-09-18T00:55:27;3.53;;;2.80;;
5722;SDS011;2886;49.722;8.612;2023-09-18T00:57:55;6.57;;;2.80;;
5722;SDS011;2886;49.722;8.612;2023-09-18T01:00:21;5.17;;;2.47;;
5722;SDS011;2886;49.722;8.612;2023-09-18T01:02:47;3.63;;;2.77;;
5722;SDS011;2886;49.722;8.612;2023-09-18T01:05:13;4.73;;;2.43;;
5722;SDS011;2886;49.722;8.612;2023-09-18T01:07:41;4.13;;;2.87;;
5722;SDS011;2886;49.722;8.612;2023-09-18T01:10:08;7.93;;;2.90;;
5722;SDS011;2886;49.722;8.612;2023-09-18T01:12:40;11.03;;;2.53;;
5722;SDS011;2886;49.722;8.612;2023-09-18T01:15:20;4.67;;;2.70;;
5722;SDS011;2886;49.722;8.612;2023-09-18T01:17:57;3.07;;;2.30;;
5722;SDS011;2886;49.722;8.612;2023-09-18T01:20:24;5.13;;;2.40;;
5722;SDS011;2886;49.722;8.612;2023-09-18T01:22:50;5.63;;;2.93;;
5722;SDS011;2886;49.722;8.612;2023-09-18T01:25:15;6.73;;;2.37;;
5722;SDS011;2886;49.722;8.612;2023-09-18T01:27:41;6.00;;;3.10;;
5722;SDS011;2886;49.722;8.612;2023-09-18T01:30:07;3.97;;;2.73;;
5722;SDS011;2886;49.722;8.612;2023-09-18T01:32:33;4.70;;;3.40;;
5722;SDS011;2886;49.722;8.612;2023-09-18T01:35:02;3.67;;;2.80;;
5722;SDS011;2886;49.722;8.612;2023-09-18T01:37:31;6.77;;;3.10;;
5722;SDS011;2886;49.722;8.612;2023-09-18T01:40:01;4.40;;;2.80;;
5722;SDS011;2886;49.722;8.612;2023-09-18T01:42:31;5.57;;;3.00;;
5722;SDS011;2886;49.722;8.612;2023-09-18T01:44:58;7.17;;;3.00;;
5722;SDS011;2886;49.722;8.612;2023-09-18T01:47:23;2.90;;;2.60;;
5722;SDS011;2886;49.722;8.612;2023-09-18T01:49:50;9.30;;;2.90;;
5722;SDS011;2886;49.722;8.612;2023-09-18T01:52:15;5.20;;;3.20;;
5722;SDS011;2886;49.722;8.612;2023-09-18T01:54:41;4.73;;;2.63;;
5722;SDS011;2886;49.722;8.612;2023-09-18T01:57:07;10.13;;;3.80;;
5722;SDS011;2886;49.722;8.612;2023-09-18T01:59:33;4.53;;;3.23;;
5722;SDS011;2886;49.722;8.612;2023-09-18T02:02:00;3.57;;;2.70;;
5722;SDS011;2886;49.722;8.612;2023-09-18T02:04:28;4.87;;;3.43;;
5722;SDS011;2886;49.722;8.612;2023-09-18T02:06:54;16.20;;;4.70;;
5722;SDS011;2886;49.722;8.612;2023-09-18T02:09:20;11.07;;;3.97;;
5722;SDS011;2886;49.722;8.612;2023-09-18T02:11:46;9.60;;;3.63;;
5722;SDS011;2886;49.722;8.612;2023-09-18T02:14:13;13.80;;;3.23;;
5722;SDS011;2886;49.722;8.612;2023-09-18T02:16:39;13.97;;;3.50;;
5722;SDS011;2886;49.722;8.612;2023-09-18T02:19:07;19.40;;;3.87;;
5722;SDS011;2886;49.722;8.612;2023-09-18T02:21:33;8.83;;;3.63;;
5722;SDS011;2886;49.722;8.612;2023-09-18T02:23:59;8.80;;;3.93;;
5722;SDS011;2886;49.722;8.612;2023-09-18T02:26:25;10.60;;;3.60;;
5722;SDS011;2886;49.722;8.612;2023-09-18T02:28:51;7.60;;;2.80;;
5722;SDS011;2886;49.722;8.612;2023-09-18T02:31:18;7.60;;;3.23;;
5722;SDS011;2886;49.722;8.612;2023-09-18T02:33:44;6.37;;;3.10;;
5722;SDS011;2886;49.722;8.612;2023-09-18T02:36:10;7.87;;;3.30;;
5722;SDS011;2886;49.722;8.612;2023-09-18T02:38:36;8.43;;;3.40;;
5722;SDS011;2886;49.722;8.612;2023-09-18T02:41:01;3.50;;;3.03;;
5722;SDS011;2886;49.722;8.612;2023-09-18T02:43:27;8.10;;;3.57;;
5722;SDS011;2886;49.722;8.612;2023-09-18T02:45:53;7.53;;;3.80;;
5722;SDS011;2886;49.722;8.612;2023-09-18T02:48:18;7.20;;;3.90;;
5722;SDS011;2886;49.722;8.612;2023-09-18T02:50:44;14.33;;;4.23;;
5722;SDS011;2886;49.722;8.612;2023-09-18T02:53:18;7.70;;;4.20;;
5722;SDS011;2886;49.722;8.612;2023-09-18T02:55:45;8.17;;;3.83;;
5722;SDS011;2886;49.722;8.612;2023-09-18T02:58:15;6.80;;;3.70;;
5722;SDS011;2886;49.722;8.612;2023-09-18T03:00:48;8.40;;;3.93;;
5722;SDS011;2886;49.722;8.612;2023-09-18T03:03:15;10.67;;;4.17;;
5722;SDS011;2886;49.722;8.612;2023-09-18T03:05:41;8.13;;;3.53;;
5722;SDS011;2886;49.722;8.612;2023-09-18T03:08:08;8.93;;;3.10;;
5722;SDS011;2886;49.722;8.612;2023-09-18T03:10:36;6.30;;;3.70;;
5722;SDS011;2886;49.722;8.612;2023-09-18T03:13:04;9.13;;;3.67;;
5722;SDS011;2886;49.722;8.612;2023-09-18T03:15:31;14.53;;;3.90;;
5722;SDS011;2886;49.722;8.612;2023-09-18T03:17:57;8.67;;;3.33;;
5722;SDS011;2886;49.722;8.612;2023-09-18T03:20:24;7.37;;;3.60;;
5722;SDS011;2886;49.722;8.612;2023-09-18T03:22:50;8.00;;;3.13;;
5722;SDS011;2886;49.722;8.612;2023-09-18T03:25:17;4.90;;;3.00;;
5722;SDS011;2886;49.722;8.612;2023-09-18T03:27:42;7.80;;;3.73;;
5722;SDS011;2886;49.722;8.612;2023-09-18T03:30:08;7.03;;;3.03;;
5722;SDS011;2886;49.722;8.612;2023-09-18T03:32:34;12.63;;;3.37;;
5722;SDS011;2886;49.722;8.612;2023-09-18T03:35:01;15.90;;;4.50;;
5722;SDS011;2886;49.722;8.612;2023-09-18T03:37:27;7.00;;;2.73;;
5722;SDS011;2886;49.722;8.612;2023-09-18T03:39:52;10.90;;;3.40;;
5722;SDS011;2886;49.722;8.612;2023-09-18T03:42:18;7.53;;;3.03;;
5722;SDS011;2886;49.722;8.612;2023-09-18T03:44:44;9.30;;;3.33;;
5722;SDS011;2886;49.722;8.612;2023-09-18T03:47:09;8.10;;;2.50;;
5722;SDS011;2886;49.722;8.612;2023-09-18T03:49:35;6.60;;;2.97;;
5722;SDS011;2886;49.722;8.612;2023-09-18T03:52:01;7.80;;;2.63;;
5722;SDS011;2886;49.722;8.612;2023-09-18T03:54:27;4.73;;;2.67;;
5722;SDS011;2886;49.722;8.612;2023-09-18T03:56:53;6.10;;;2.70;;
5722;SDS011;2886;49.722;8.612;2023-09-18T03:59:18;7.03;;;2.90;;
5722;SDS011;2886;49.722;8.612;2023-09-18T04:01:44;6.23;;;2.77;;
5722;SDS011;2886;49.722;8.612;2023-09-18T04:04:10;5.00;;;2.57;;
5722;SDS011;2886;49.722;8.612;2023-09-18T04:06:42;10.30;;;3.07;;
5722;SDS011;2886;49.722;8.612;2023-09-18T04:09:09;11.47;;;3.20;;
5722;SDS011;2886;49.722;8.612;2023-09-18T04:11:35;6.13;;;2.53;;
5722;SDS011;2886;49.722;8.612;2023-09-18T04:14:01;9.53;;;3.03;;
5722;SDS011;2886;49.722;8.612;2023-09-18T04:16:28;7.40;;;2.70;;
5722;SDS011;2886;49.722;8.612;2023-09-18T04:18:55;5.00;;;2.43;;
5722;SDS011;2886;49.722;8.612;2023-09-18T04:21:21;5.40;;;2.97;;
5722;SDS011;2886;49.722;8.612;2023-09-18T04:23:47;8.00;;;3.23;;
5722;SDS011;2886;49.722;8.612;2023-09-18T04:26:13;7.37;;;3.40;;
5722;SDS011;2886;49.722;8.612;2023-09-18T04:28:41;9.63;;;3.10;;
5722;SDS011;2886;49.722;8.612;2023-09-18T04:31:07;4.93;;;2.60;;
5722;SDS011;2886;49.722;8.612;2023-09-18T04:33:32;12.07;;;3.53;;
5722;SDS011;2886;49.722;8.612;2023-09-18T04:35:58;8.63;;;3.20;;
5722;SDS011;2886;49.722;8.612;2023-09-18T04:38:24;8.33;;;2.93;;
5722;SDS011;2886;49.722;8.612;2023-09-18T04:40:49;13.40;;;2.90;;
5722;SDS011;2886;49.722;8.612;2023-09-18T04:43:22;7.07;;;3.90;;
5722;SDS011;2886;49.722;8.612;2023-09-18T04:45:48;5.37;;;3.00;;
5722;SDS011;2886;49.722;8.612;2023-09-18T04:48:14;10.00;;;3.13;;
5722;SDS011;2886;49.722;8.612;2023-09-18T04:50:39;5.77;;;3.40;;
5722;SDS011;2886;49.722;8.612;2023-09-18T04:53:05;9.07;;;3.67;;
5722;SDS011;2886;49.722;8.612;2023-09-18T04:55:31;10.50;;;3.80;;
5722;SDS011;2886;49.722;8.612;2023-09-18T04:57:56;17.00;;;3.50;;
5722;SDS011;2886;49.722;8.612;2023-09-18T05:00:23;11.27;;;3.63;;
5722;SDS011;2886;49.722;8.612;2023-09-18T05:02:51;7.00;;;2.87;;
5722;SDS011;2886;49.722;8.612;2023-09-18T05:05:17;8.17;;;3.80;;
5722;SDS011;2886;49.722;8.612;2023-09-18T05:07:43;10.30;;;2.93;;
5722;SDS011;2886;49.722;8.612;2023-09-18T05:10:09;8.40;;;3.37;;
5722;SDS011;2886;49.722;8.612;2023-09-18T05:12:35;8.80;;;3.57;;
5722;SDS011;2886;49.722;8.612;2023-09-18T05:15:00;11.30;;;2.60;;
5722;SDS011;2886;49.722;8.612;2023-09-18T05:17:39;10.83;;;3.20;;
5722;SDS011;2886;49.722;8.612;2023-09-18T05:20:10;10.80;;;3.57;;
5722;SDS011;2886;49.722;8.612;2023-09-18T05:22:41;7.67;;;2.53;;
5722;SDS011;2886;49.722;8.612;2023-09-18T05:25:08;12.40;;;3.87;;
5722;SDS011;2886;49.722;8.612;2023-09-18T05:27:37;16.93;;;2.97;;
5722;SDS011;2886;49.722;8.612;2023-09-18T05:30:18;12.60;;;3.73;;
5722;SDS011;2886;49.722;8.612;2023-09-18T05:32:46;4.90;;;3.37;;
5722;SDS011;2886;49.722;8.612;2023-09-18T05:35:13;12.00;;;3.00;;
5722;SDS011;2886;49.722;8.612;2023-09-18T05:37:39;11.20;;;3.27;;
5722;SDS011;2886;49.722;8.612;2023-09-18T05:40:06;8.93;;;2.67;;
5722;SDS011;2886;49.722;8.612;2023-09-18T05:42:36;7.00;;;3.10;;
5722;SDS011;2886;49.722;8.612;2023-09-18T05:45:03;19.77;;;3.30;;
5722;SDS011;2886;49.722;8.612;2023-09-18T05:47:31;11.53;;;3.23;;
5722;SDS011;2886;49.722;8.612;2023-09-18T05:50:04;10.30;;;3.50;;
5722;SDS011;2886;49.722;8.612;2023-09-18T05:52:31;7.50;;;2.97;;
5722;SDS011;2886;49.722;8.612;2023-09-18T05:54:58;7.87;;;3.27;;
5722;SDS011;2886;49.722;8.612;2023-09-18T05:57:24;8.20;;;3.70;;
5722;SDS011;2886;49.722;8.612;2023-09-18T05:59:50;13.90;;;3.30;;
5722;SDS011;2886;49.722;8.612;2023-09-18T06:02:15;9.93;;;3.63;;
5722;SDS011;2886;49.722;8.612;2023-09-18T06:04:41;8.17;;;3.40;;
5722;SDS011;2886;49.722;8.612;2023-09-18T06:07:08;9.53;;;3.00;;
5722;SDS011;2886;49.722;8.612;2023-09-18T06:09:33;13.90;;;4.60;;
5722;SDS011;2886;49.722;8.612;2023-09-18T06:11:59;7.40;;;2.87;;
5722;SDS011;2886;49.722;8.612;2023-09-18T06:14:25;15.90;;;2.77;;
5722;SDS011;2886;49.722;8.612;2023-09-18T06:16:51;5.03;;;2.20;;
5722;SDS011;2886;49.722;8.612;2023-09-18T06:19:16;8.83;;;3.00;;
5722;SDS011;2886;49.722;8.612;2023-09-18T06:21:42;8.30;;;2.57;;
5722;SDS011;2886;49.722;8.612;2023-09-18T06:24:09;21.97;;;3.07;;
5722;SDS011;2886;49.722;8.612;2023-09-18T06:26:34;6.57;;;2.97;;
5722;SDS011;2886;49.722;8.612;2023-09-18T06:29:00;6.90;;;3.10;;
5722;SDS011;2886;49.722;8.612;2023-09-18T06:31:27;18.73;;;3.30;;
5722;SDS011;2886;49.722;8.612;2023-09-18T06:33:53;4.97;;;2.00;;
5722;SDS011;2886;49.722;8.612;2023-09-18T06:36:18;10.33;;;2.57;;
5722;SDS011;2886;49.722;8.612;2023-09-18T06:38:44;7.83;;;2.43;;
5722;SDS011;2886;49.722;8.612;2023-09-18T06:41:10;9.83;;;4.83;;
5722;SDS011;2886;49.722;8.612;2023-09-18T06:43:35;5.37;;;1.97;;
5722;SDS011;2886;49.722;8.612;2023-09-18T06:46:01;5.17;;;2.17;;
5722;SDS011;2886;49.722;8.612;2023-09-18T06:48:27;8.60;;;2.83;;
5722;SDS011;2886;49.722;8.612;2023-09-18T06:50:57;10.67;;;2.67;;
5722;SDS011;2886;49.722;8.612;2023-09-18T06:53:23;5.93;;;2.37;;
5722;SDS011;2886;49.722;8.612;2023-09-18T06:55:48;10.80;;;2.60;;
5722;SDS011;2886;49.722;8.612;2023-09-18T06:58:14;7.63;;;2.97;;
5722;SDS011;2886;49.722;8.612;2023-09-18T07:00:40;5.40;;;2.33;;
5722;SDS011;2886;49.722;8.612;2023-09-18T07:03:05;6.17;;;2.70;;
5722;SDS011;2886;49.722;8.612;2023-09-18T07:05:31;12.57;;;2.80;;
5722;SDS011;2886;49.722;8.612;2023-09-18T07:07:57;6.27;;;3.03;;
5722;SDS011;2886;49.722;8.612;2023-09-18T07:10:22;7.97;;;2.37;;
5722;SDS011;2886;49.722;8.612;2023-09-18T07:12:48;9.87;;;3.30;;
5722;SDS011;2886;49.722;8.612;2023-09-18T07:15:14;9.60;;;2.57;;
5722;SDS011;2886;49.722;8.612;2023-09-18T07:17:40;9.57;;;3.13;;
5722;SDS011;2886;49.722;8.612;2023-09-18T07:20:05;6.77;;;2.87;;
5722;SDS011;2886;49.722;8.612;2023-09-18T07:22:38;7.27;;;2.60;;
5722;SDS011;2886;49.722;8.612;2023-09-18T07:25:11;9.00;;;2.93;;
5722;SDS011;2886;49.722;8.612;2023-09-18T07:27:36;8.17;;;2.77;;
5722;SDS011;2886;49.722;8.612;2023-09-18T07:30:05;6.90;;;3.10;;
5722;SDS011;2886;49.722;8.612;2023-09-18T07:32:31;5.60;;;2.70;;
5722;SDS011;2886;49.722;8.612;2023-09-18T07:34:57;12.60;;;2.70;;
5722;SDS011;2886;49.722;8.612;2023-09-18T07:37:23;7.17;;;3.27;;
5722;SDS011;2886;49.722;8.612;2023-09-18T07:39:49;11.90;;;2.93;;
5722;SDS011;2886;49.722;8.612;2023-09-18T07:42:14;9.20;;;2.37;;
5722;SDS011;2886;49.722;8.612;2023-09-18T07:44:40;12.10;;;2.70;;
5722;SDS011;2886;49.722;8.612;2023-09-18T07:47:05;4.73;;;2.03;;
5722;SDS011;2886;49.722;8.612;2023-09-18T07:49:31;7.60;;;2.43;;
5722;SDS011;2886;49.722;8.612;2023-09-18T07:51:56;4.33;;;2.10;;
5722;SDS011;2886;49.722;8.612;2023-09-18T07:54:22;5.87;;;2.20;;
5722;SDS011;2886;49.722;8.612;2023-09-18T07:56:48;6.47;;;2.93;;
5722;SDS011;2886;49.722;8.612;2023-09-18T07:59:14;9.27;;;2.33;;
5722;SDS011;2886;49.722;8.612;2023-09-18T08:01:40;5.10;;;2.30;;
5722;SDS011;2886;49.722;8.612;2023-09-18T08:04:06;8.20;;;2.40;;
5722;SDS011;2886;49.722;8.612;2023-09-18T08:06:32;5.20;;;1.90;;
5722;SDS011;2886;49.722;8.612;2023-09-18T08:08:57;8.47;;;1.67;;
5722;SDS011;2886;49.722;8.612;2023-09-18T08:11:23;5.77;;;1.83;;
5722;SDS011;2886;49.722;8.612;2023-09-18T08:13:48;7.77;;;2.10;;
5722;SDS011;2886;49.722;8.612;2023-09-18T08:16:14;9.90;;;2.30;;
5722;SDS011;2886;49.722;8.612;2023-09-18T08:18:40;6.43;;;2.00;;
5722;SDS011;2886;49.722;8.612;2023-09-18T08:21:06;4.07;;;1.83;;
5722;SDS011;2886;49.722;8.612;2023-09-18T08:23:34;4.30;;;1.77;;
5722;SDS011;2886;49.722;8.612;2023-09-18T08:26:03;3.57;;;1.80;;
5722;SDS011;2886;49.722;8.612;2023-09-18T08:28:29;7.70;;;2.00;;
5722;SDS011;2886;49.722;8.612;2023-09-18T08:30:55;4.73;;;2.10;;
5722;SDS011;2886;49.722;8.612;2023-09-18T08:33:21;3.10;;;1.60;;
5722;SDS011;2886;49.722;8.612;2023-09-18T08:35:47;4.33;;;1.90;;
5722;SDS011;2886;49.722;8.612;2023-09-18T08:38:14;3.40;;;1.87;;
5722;SDS011;2886;49.722;8.612;2023-09-18T08:40:40;13.33;;;2.30;;
5722;SDS011;2886;49.722;8.612;2023-09-18T08:43:10;11.07;;;2.37;;
5722;SDS011;2886;49.722;8.612;2023-09-18T08:45:55;3.93;;;1.60;;
5722;SDS011;2886;49.722;8.612;2023-09-18T08:48:26;10.03;;;2.63;;
5722;SDS011;2886;49.722;8.612;2023-09-18T08:50:59;9.60;;;1.97;;
5722;SDS011;2886;49.722;8.612;2023-09-18T08:53:33;5.20;;;1.93;;
5722;SDS011;2886;49.722;8.612;2023-09-18T08:56:00;5.40;;;1.60;;
5722;SDS011;2886;49.722;8.612;2023-09-18T08:58:31;8.00;;;1.70;;
5722;SDS011;2886;49.722;8.612;2023-09-18T09:01:00;3.37;;;1.40;;
5722;SDS011;2886;49.722;8.612;2023-09-18T09:03:31;12.70;;;2.20;;
5722;SDS011;2886;49.722;8.612;2023-09-18T09:05:59;8.20;;;1.77;;
5722;SDS011;2886;49.722;8.612;2023-09-18T09:08:27;5.40;;;1.60;;
5722;SDS011;2886;49.722;8.612;2023-09-18T09:10:53;8.57;;;1.80;;
5722;SDS011;2886;49.722;8.612;2023-09-18T09:13:19;4.30;;;1.87;;
5722;SDS011;2886;49.722;8.612;2023-09-18T09:15:51;4.20;;;1.77;;
5722;SDS011;2886;49.722;8.612;2023-09-18T09:18:24;9.17;;;2.17;;
5722;SDS011;2886;49.722;8.612;2023-09-18T09:20:54;10.17;;;2.40;;
5722;SDS011;2886;49.722;8.612;2023-09-18T09:23:22;5.13;;;1.73;;
5722;SDS011;2886;49.722;8.612;2023-09-18T09:25:48;7.53;;;1.60;;
5722;SDS011;2886;49.722;8.612;2023-09-18T09:28:14;8.33;;;1.80;;
5722;SDS011;2886;49.722;8.612;2023-09-18T09:30:41;7.10;;;2.73;;
5722;SDS011;2886;49.722;8.612;2023-09-18T09:33:07;5.47;;;1.97;;
5722;SDS011;2886;49.722;8.612;2023-09-18T09:35:36;4.40;;;1.60;;
5722;SDS011;2886;49.722;8.612;2023-09-18T09:38:10;4.40;;;1.93;;
5722;SDS011;2886;49.722;8.612;2023-09-18T09:40:40;9.53;;;1.80;;
5722;SDS011;2886;49.722;8.612;2023-09-18T09:43:08;4.03;;;1.73;;
5722;SDS011;2886;49.722;8.612;2023-09-18T09:45:35;7.63;;;1.67;;
5722;SDS011;2886;49.722;8.612;2023-09-18T09:48:02;1.80;;;1.43;;
5722;SDS011;2886;49.722;8.612;2023-09-18T09:50:30;4.33;;;1.70;;
5722;SDS011;2886;49.722;8.612;2023-09-18T09:52:57;3.90;;;1.60;;
5722;SDS011;2886;49.722;8.612;2023-09-18T09:57:51;4.67;;;1.57;;
5722;SDS011;2886;49.722;8.612;2023-09-18T10:00:18;5.27;;;1.57;;
5722;SDS011;2886;49.722;8.612;2023-09-18T10:02:54;7.70;;;2.00;;
5722;SDS011;2886;49.722;8.612;2023-09-18T10:05:23;5.30;;;1.80;;
5722;SDS011;2886;49.722;8.612;2023-09-18T10:07:52;6.60;;;1.80;;
5722;SDS011;2886;49.722;8.612;2023-09-18T10:10:19;9.67;;;1.70;;
5722;SDS011;2886;49.722;8.612;2023-09-18T10:12:45;2.13;;;1.47;;
5722;SDS011;2886;49.722;8.612;2023-09-18T10:15:14;6.53;;;1.53;;
5722;SDS011;2886;49.722;8.612;2023-09-18T10:17:42;11.67;;;2.50;;
5722;SDS011;2886;49.722;8.612;2023-09-18T10:20:13;6.60;;;1.90;;
5722;SDS011;2886;49.722;8.612;2023-09-18T10:22:51;7.07;;;2.23;;
5722;SDS011;2886;49.722;8.612;2023-09-18T10:25:21;8.03;;;2.07;;
5722;SDS011;2886;49.722;8.612;2023-09-18T10:27:49;3.37;;;1.33;;
5722;SDS011;2886;49.722;8.612;2023-09-18T10:30:19;6.23;;;1.83;;
5722;SDS011;2886;49.722;8.612;2023-09-18T10:32:48;4.67;;;1.50;;
5722;SDS011;2886;49.722;8.612;2023-09-18T10:35:15;5.17;;;1.53;;
5722;SDS011;2886;49.722;8.612;2023-09-18T10:37:43;2.17;;;1.40;;
5722;SDS011;2886;49.722;8.612;2023-09-18T10:40:11;6.80;;;1.93;;
5722;SDS011;2886;49.722;8.612;2023-09-18T10:42:38;4.17;;;1.63;;
5722;SDS011;2886;49.722;8.612;2023-09-18T10:45:10;1.97;;;1.30;;
5722;SDS011;2886;49.722;8.612;2023-09-18T10:47:37;4.27;;;1.83;;
5722;SDS011;2886;49.722;8.612;2023-09-18T10:50:05;5.57;;;1.53;;
5722;SDS011;2886;49.722;8.612;2023-09-18T10:52:32;9.63;;;1.77;;
5722;SDS011;2886;49.722;8.612;2023-09-18T10:55:00;3.20;;;1.60;;
5722;SDS011;2886;49.722;8.612;2023-09-18T10:57:32;7.07;;;1.60;;
5722;SDS011;2886;49.722;8.612;2023-09-18T10:59:59;5.27;;;1.63;;
5722;SDS011;2886;49.722;8.612;2023-09-18T11:02:25;6.20;;;1.53;;
5722;SDS011;2886;49.722;8.612;2023-09-18T11:04:53;7.27;;;3.20;;
5722;SDS011;2886;49.722;8.612;2023-09-18T11:07:22;6.60;;;1.77;;
5722;SDS011;2886;49.722;8.612;2023-09-18T11:09:50;4.53;;;1.80;;
5722;SDS011;2886;49.722;8.612;2023-09-18T11:12:16;4.43;;;1.87;;
5722;SDS011;2886;49.722;8.612;2023-09-18T11:20:02;2.80;;;1.70;;
5722;SDS011;2886;49.722;8.612;2023-09-18T11:22:36;6.60;;;1.87;;
5722;SDS011;2886;49.722;8.612;2023-09-18T11:25:28;2.37;;;1.63;;
5722;SDS011;2886;49.722;8.612;2023-09-18T11:27:56;9.30;;;1.30;;
5722;SDS011;2886;49.722;8.612;2023-09-18T11:30:22;2.37;;;1.40;;
5722;SDS011;2886;49.722;8.612;2023-09-18T11:32:49;3.80;;;1.73;;
5722;SDS011;2886;49.722;8.612;2023-09-18T11:35:14;6.03;;;1.80;;
5722;SDS011;2886;49.722;8.612;2023-09-18T11:37:43;4.37;;;1.70;;
5722;SDS011;2886;49.722;8.612;2023-09-18T11:45:59;7.63;;;2.27;;
5722;SDS011;2886;49.722;8.612;2023-09-18T11:48:27;4.60;;;1.73;;
5722;SDS011;2886;49.722;8.612;2023-09-18T11:50:54;7.33;;;1.90;;
5722;SDS011;2886;49.722;8.612;2023-09-18T11:53:22;4.17;;;1.30;;
5722;SDS011;2886;49.722;8.612;2023-09-18T11:55:49;4.13;;;1.97;;
5722;SDS011;2886;49.722;8.612;2023-09-18T11:58:15;4.83;;;1.60;;
5722;SDS011;2886;49.722;8.612;2023-09-18T12:00:41;3.00;;;1.50;;
5722;SDS011;2886;49.722;8.612;2023-09-18T12:03:22;4.40;;;2.43;;
5722;SDS011;2886;49.722;8.612;2023-09-18T12:05:55;4.90;;;1.80;;
5722;SDS011;2886;49.722;8.612;2023-09-18T12:08:22;3.03;;;1.80;;
5722;SDS011;2886;49.722;8.612;2023-09-18T12:10:51;5.93;;;2.17;;
5722;SDS011;2886;49.722;8.612;2023-09-18T12:13:18;5.57;;;2.53;;
5722;SDS011;2886;49.722;8.612;2023-09-18T12:15:44;2.70;;;1.40;;
5722;SDS011;2886;49.722;8.612;2023-09-18T12:18:10;6.27;;;1.60;;
5722;SDS011;2886;49.722;8.612;2023-09-18T12:20:46;8.47;;;2.30;;
5722;SDS011;2886;49.722;8.612;2023-09-18T12:23:13;3.73;;;1.90;;
5722;SDS011;2886;49.722;8.612;2023-09-18T12:25:39;4.07;;;1.80;;
5722;SDS011;2886;49.722;8.612;2023-09-18T12:28:08;5.00;;;2.10;;
5722;SDS011;2886;49.722;8.612;2023-09-18T12:30:34;5.37;;;1.93;;
5722;SDS011;2886;49.722;8.612;2023-09-18T12:32:59;5.73;;;2.07;;
5722;SDS011;2886;49.722;8.612;2023-09-18T12:35:27;4.03;;;2.50;;
5722;SDS011;2886;49.722;8.612;2023-09-18T12:37:55;2.97;;;1.70;;
5722;SDS011;2886;49.722;8.612;2023-09-18T12:40:26;3.63;;;1.70;;
5722;SDS011;2886;49.722;8.612;2023-09-18T12:42:53;2.30;;;1.63;;
5722;SDS011;2886;49.722;8.612;2023-09-18T12:45:24;4.70;;;1.90;;
5722;SDS011;2886;49.722;8.612;2023-09-18T12:47:51;2.33;;;1.67;;
5722;SDS011;2886;49.722;8.612;2023-09-18T12:50:19;2.70;;;1.47;;
5722;SDS011;2886;49.722;8.612;2023-09-18T12:52:44;3.80;;;1.80;;
5722;SDS011;2886;49.722;8.612;2023-09-18T12:55:26;2.60;;;1.60;;
5722;SDS011;2886;49.722;8.612;2023-09-18T12:57:54;8.03;;;2.10;;
5722;SDS011;2886;49.722;8.612;2023-09-18T13:00:21;4.40;;;1.63;;
5722;SDS011;2886;49.722;8.612;2023-09-18T13:02:51;2.03;;;1.60;;
5722;SDS011;2886;49.722;8.612;2023-09-18T13:05:20;3.63;;;2.10;;
5722;SDS011;2886;49.722;8.612;2023-09-18T13:07:50;3.90;;;1.47;;
5722;SDS011;2886;49.722;8.612;2023-09-18T13:10:16;3.43;;;1.60;;
5722;SDS011;2886;49.722;8.612;2023-09-18T13:12:43;3.73;;;2.00;;
5722;SDS011;2886;49.722;8.612;2023-09-18T13:15:12;3.77;;;1.33;;
5722;SDS011;2886;49.722;8.612;2023-09-18T13:17:42;3.83;;;2.00;;
5722;SDS011;2886;49.722;8.612;2023-09-18T13:20:16;5.43;;;1.97;;
5722;SDS011;2886;49.722;8.612;2023-09-18T13:22:55;5.07;;;1.90;;
5722;SDS011;2886;49.722;8.612;2023-09-18T13:25:23;3.37;;;1.60;;
5722;SDS011;2886;49.722;8.612;2023-09-18T13:27:51;3.43;;;1.97;;
5722;SDS011;2886;49.722;8.612;2023-09-18T13:30:18;7.13;;;1.80;;
5722;SDS011;2886;49.722;8.612;2023-09-18T13:32:46;3.53;;;1.57;;
5722;SDS011;2886;49.722;8.612;2023-09-18T13:35:15;7.47;;;1.60;;
5722;SDS011;2886;49.722;8.612;2023-09-18T13:37:42;2.60;;;1.90;;
5722;SDS011;2886;49.722;8.612;2023-09-18T13:40:09;2.67;;;1.60;;
5722;SDS011;2886;49.722;8.612;2023-09-18T13:42:35;4.73;;;1.67;;
5722;SDS011;2886;49.722;8.612;2023-09-18T13:45:02;9.17;;;1.80;;
5722;SDS011;2886;49.722;8.612;2023-09-18T13:47:32;2.50;;;1.40;;
5722;SDS011;2886;49.722;8.612;2023-09-18T13:49:59;4.40;;;1.80;;
5722;SDS011;2886;49.722;8.612;2023-09-18T13:52:26;4.90;;;1.40;;
5722;SDS011;2886;49.722;8.612;2023-09-18T13:54:52;2.53;;;1.43;;
5722;SDS011;2886;49.722;8.612;2023-09-18T13:57:18;3.27;;;1.30;;
5722;SDS011;2886;49.722;8.612;2023-09-18T13:59:45;2.47;;;1.73;;
5722;SDS011;2886;49.722;8.612;2023-09-18T14:02:11;5.27;;;1.83;;
5722;SDS011;2886;49.722;8.612;2023-09-18T14:04:37;7.27;;;1.70;;
5722;SDS011;2886;49.722;8.612;2023-09-18T14:07:03;3.23;;;1.60;;
5722;SDS011;2886;49.722;8.612;2023-09-18T14:09:30;8.00;;;1.70;;
5722;SDS011;2886;49.722;8.612;2023-09-18T14:11:56;9.63;;;1.97;;
5722;SDS011;2886;49.722;8.612;2023-09-18T14:14:22;3.60;;;1.50;;
5722;SDS011;2886;49.722;8.612;2023-09-18T14:16:48;6.40;;;1.43;;
5722;SDS011;2886;49.722;8.612;2023-09-18T14:19:17;2.97;;;1.70;;
5722;SDS011;2886;49.722;8.612;2023-09-18T14:21:42;1.70;;;1.30;;
5722;SDS011;2886;49.722;8.612;2023-09-18T14:24:08;6.90;;;1.80;;
5722;SDS011;2886;49.722;8.612;2023-09-18T14:26:34;6.17;;;1.60;;
5722;SDS011;2886;49.722;8.612;2023-09-18T14:29:08;4.50;;;1.67;;
5722;SDS011;2886;49.722;8.612;2023-09-18T14:31:37;4.87;;;1.73;;
5722;SDS011;2886;49.722;8.612;2023-09-18T14:34:03;6.90;;;1.70;;
5722;SDS011;2886;49.722;8.612;2023-09-18T14:36:32;7.13;;;1.83;;
5722;SDS011;2886;49.722;8.612;2023-09-18T14:39:01;3.80;;;1.80;;
5722;SDS011;2886;49.722;8.612;2023-09-18T14:41:28;9.63;;;1.80;;
5722;SDS011;2886;49.722;8.612;2023-09-18T14:43:54;2.03;;;1.80;;
5722;SDS011;2886;49.722;8.612;2023-09-18T14:46:22;8.20;;;2.00;;
5722;SDS011;2886;49.722;8.612;2023-09-18T14:48:49;2.80;;;1.57;;
5722;SDS011;2886;49.722;8.612;2023-09-18T14:51:14;3.60;;;1.70;;
5722;SDS011;2886;49.722;8.612;2023-09-18T14:53:40;6.10;;;1.50;;
5722;SDS011;2886;49.722;8.612;2023-09-18T14:56:06;2.53;;;1.40;;
5722;SDS011;2886;49.722;8.612;2023-09-18T14:58:31;4.37;;;1.47;;
5722;SDS011;2886;49.722;8.612;2023-09-18T15:00:57;4.20;;;1.90;;
5722;SDS011;2886;49.722;8.612;2023-09-18T15:03:23;3.73;;;1.70;;
5722;SDS011;2886;49.722;8.612;2023-09-18T15:05:52;2.20;;;1.57;;
5722;SDS011;2886;49.722;8.612;2023-09-18T15:08:18;3.40;;;1.53;;
5722;SDS011;2886;49.722;8.612;2023-09-18T15:10:45;2.83;;;1.80;;
5722;SDS011;2886;49.722;8.612;2023-09-18T15:13:11;5.00;;;2.17;;
5722;SDS011;2886;49.722;8.612;2023-09-18T15:15:36;3.50;;;1.47;;
5722;SDS011;2886;49.722;8.612;2023-09-18T15:18:02;7.70;;;1.90;;
5722;SDS011;2886;49.722;8.612;2023-09-18T15:20:28;3.83;;;1.70;;
5722;SDS011;2886;49.722;8.612;2023-09-18T15:22:54;5.33;;;1.70;;
5722;SDS011;2886;49.722;8.612;2023-09-18T15:25:21;3.53;;;1.60;;
5722;SDS011;2886;49.722;8.612;2023-09-18T15:27:47;5.13;;;1.73;;